createdAt,value
2019-06-15T00:01:35.632Z,4.47
2019-06-15T00:04:23.193Z,4.37
2019-06-15T00:07:11.206Z,5.03
2019-06-15T00:09:58.731Z,4.78
2019-06-15T00:12:46.377Z,4.40
2019-06-15T00:15:33.499Z,4.92
2019-06-15T00:18:21.194Z,4.75
2019-06-15T00:21:08.621Z,4.28
2019-06-15T00:23:56.455Z,5.12
2019-06-15T00:26:44.421Z,4.75
2019-06-15T00:29:32.173Z,4.75
2019-06-15T00:32:19.663Z,4.40
2019-06-15T00:35:07.591Z,4.78
2019-06-15T00:37:55.308Z,4.60
2019-06-15T00:40:42.542Z,4.87
2019-06-15T00:43:30.193Z,4.37
2019-06-15T00:46:17.850Z,4.78
2019-06-15T00:49:05.493Z,4.80
2019-06-15T00:51:53.557Z,4.10
2019-06-15T00:54:50.091Z,5.12
2019-06-15T00:57:28.763Z,4.90
2019-06-15T01:00:16.495Z,5.33
2019-06-15T01:03:03.915Z,5.12
2019-06-15T01:05:51.053Z,4.70
2019-06-15T01:08:38.492Z,4.47
2019-06-15T01:11:26.187Z,4.12
2019-06-15T01:14:13.768Z,3.87
2019-06-15T01:17:01.319Z,4.00
2019-06-15T01:19:48.797Z,4.08
2019-06-15T01:22:36.097Z,3.98
2019-06-15T01:25:23.621Z,4.30
2019-06-15T01:28:11.125Z,4.10
2019-06-15T01:30:58.816Z,4.28
2019-06-15T01:33:46.317Z,4.00
2019-06-15T01:36:33.689Z,3.90
2019-06-15T01:39:21.728Z,3.77
2019-06-15T01:42:10.879Z,3.72
2019-06-15T01:44:58.010Z,4.12
2019-06-15T01:47:45.784Z,3.87
2019-06-15T01:50:33.155Z,3.95
2019-06-15T01:53:20.800Z,3.90
2019-06-15T01:56:08.819Z,4.08
2019-06-15T01:58:56.155Z,4.25
2019-06-15T02:01:43.455Z,5.05
2019-06-15T02:04:31.006Z,6.00
2019-06-15T02:07:18.471Z,6.97
2019-06-15T02:10:06.080Z,6.78
2019-06-15T02:12:53.696Z,6.83
2019-06-15T02:15:41.671Z,6.75
2019-06-15T02:18:29.354Z,7.33
2019-06-15T02:21:16.776Z,7.43
2019-06-15T02:24:04.300Z,8.33
2019-06-15T02:26:51.651Z,9.23
2019-06-15T02:29:39.062Z,9.77
2019-06-15T02:32:26.732Z,9.40
2019-06-15T02:35:13.959Z,8.98
2019-06-15T02:38:01.914Z,10.57
2019-06-15T02:40:49.534Z,11.53
2019-06-15T02:43:36.991Z,10.87
2019-06-15T02:46:26.401Z,10.57
2019-06-15T02:49:12.579Z,12.00
2019-06-15T02:52:00.071Z,12.95
2019-06-15T02:54:47.245Z,12.47
2019-06-15T02:57:34.981Z,13.10
2019-06-15T03:00:37.118Z,12.85
2019-06-15T03:03:24.632Z,14.13
2019-06-15T03:06:11.970Z,14.53
2019-06-15T03:08:59.269Z,14.70
2019-06-15T03:11:47.268Z,13.80
2019-06-15T03:14:34.428Z,14.13
2019-06-15T03:17:24.520Z,14.20
2019-06-15T03:20:12.077Z,14.07
2019-06-15T03:22:59.846Z,14.38
2019-06-15T03:25:47.388Z,16.97
2019-06-15T03:28:35.062Z,16.80
2019-06-15T03:31:22.669Z,18.50
2019-06-15T03:34:10.375Z,18.47
2019-06-15T03:36:58.286Z,19.43
2019-06-15T03:39:46.232Z,17.70
2019-06-15T03:42:33.996Z,20.53
2019-06-15T03:45:21.574Z,21.87
2019-06-15T03:48:09.608Z,21.27
2019-06-15T03:50:56.735Z,22.40
2019-06-15T03:53:44.051Z,22.73
2019-06-15T03:56:31.750Z,21.70
2019-06-15T03:59:19.710Z,21.77
2019-06-15T04:02:07.315Z,20.90
2019-06-15T04:04:54.814Z,22.17
2019-06-15T04:07:42.174Z,21.10
2019-06-15T04:10:29.754Z,23.90
2019-06-15T04:13:17.386Z,22.77
2019-06-15T04:16:04.607Z,21.77
2019-06-15T04:18:52.485Z,22.77
2019-06-15T04:21:40.348Z,21.63
2019-06-15T04:24:27.927Z,23.43
2019-06-15T04:27:15.678Z,22.10
2019-06-15T04:30:03.627Z,22.60
2019-06-15T04:32:51.096Z,23.57
2019-06-15T04:35:38.890Z,22.07
2019-06-15T04:38:26.346Z,22.40
2019-06-15T04:41:14.000Z,22.03
2019-06-15T04:44:01.446Z,23.37
2019-06-15T04:46:48.751Z,21.17
2019-06-15T04:49:36.044Z,20.87
2019-06-15T04:52:23.960Z,20.53
2019-06-15T04:55:11.394Z,19.47
2019-06-15T04:57:58.830Z,18.87
2019-06-15T05:00:46.390Z,19.17
2019-06-15T05:03:33.777Z,19.30
2019-06-15T05:06:21.192Z,19.00
2019-06-15T05:09:08.582Z,19.43
2019-06-15T05:11:55.987Z,19.13
2019-06-15T05:14:43.389Z,19.40
2019-06-15T05:17:30.912Z,19.20
2019-06-15T05:20:18.530Z,18.83
2019-06-15T05:23:05.799Z,20.27
2019-06-15T05:25:53.460Z,20.13
2019-06-15T05:28:40.939Z,21.17
2019-06-15T05:31:28.369Z,21.43
2019-06-15T05:34:15.763Z,20.90
2019-06-15T05:37:03.937Z,21.83
2019-06-15T05:39:51.898Z,23.37
2019-06-15T05:42:39.201Z,21.17
2019-06-15T05:45:26.617Z,21.30
2019-06-15T05:48:14.334Z,22.50
2019-06-15T05:51:01.765Z,21.93
2019-06-15T05:53:48.878Z,22.57
2019-06-15T05:56:36.567Z,22.50
2019-06-15T05:59:24.042Z,22.85
2019-06-15T06:02:11.567Z,23.45
2019-06-15T06:04:58.885Z,21.77
2019-06-15T06:07:46.958Z,22.30
2019-06-15T06:10:34.388Z,21.48
2019-06-15T06:13:22.221Z,20.23
2019-06-15T06:16:10.196Z,20.62
2019-06-15T06:18:58.064Z,20.30
2019-06-15T06:21:45.429Z,21.03
2019-06-15T06:24:32.916Z,21.42
2019-06-15T06:27:35.661Z,20.80
2019-06-15T06:30:08.593Z,21.07
2019-06-15T06:32:56.655Z,21.37
2019-06-15T06:35:44.093Z,21.30
2019-06-15T06:38:32.172Z,21.30
2019-06-15T06:41:20.111Z,20.12
2019-06-15T06:44:07.551Z,20.65
2019-06-15T06:46:55.212Z,18.92
2019-06-15T06:49:42.708Z,18.80
2019-06-15T06:52:30.484Z,17.48
2019-06-15T06:55:17.918Z,17.70
2019-06-15T06:58:05.744Z,17.85
2019-06-15T07:00:53.488Z,18.05
2019-06-15T07:03:41.183Z,18.32
2019-06-15T07:06:28.671Z,17.90
2019-06-15T07:09:16.808Z,19.12
2019-06-15T07:12:03.987Z,22.70
2019-06-15T07:14:51.727Z,19.67
2019-06-15T07:17:39.316Z,19.50
2019-06-15T07:20:27.116Z,19.12
2019-06-15T07:23:14.800Z,19.48
2019-06-15T07:26:02.366Z,18.45
2019-06-15T07:28:50.172Z,17.95
2019-06-15T07:31:38.496Z,19.23
2019-06-15T07:34:25.964Z,18.40
2019-06-15T07:37:13.216Z,17.73
2019-06-15T07:40:00.766Z,17.37
2019-06-15T07:42:48.167Z,17.12
2019-06-15T07:45:35.523Z,30.50
2019-06-15T07:48:23.526Z,20.48
2019-06-15T07:51:11.556Z,18.05
2019-06-15T07:53:58.687Z,17.20
2019-06-15T07:56:46.242Z,17.65
2019-06-15T07:59:33.666Z,17.30
2019-06-15T08:02:20.972Z,18.87
2019-06-15T08:05:08.397Z,19.32
2019-06-15T08:07:55.873Z,17.25
2019-06-15T08:10:43.522Z,19.62
2019-06-15T08:13:31.085Z,18.80
2019-06-15T08:16:18.329Z,19.00
2019-06-15T08:19:05.898Z,21.00
2019-06-15T08:21:53.327Z,19.05
2019-06-15T08:24:40.948Z,20.65
2019-06-15T08:27:28.608Z,21.37
2019-06-15T08:30:16.652Z,20.97
2019-06-15T08:33:03.914Z,19.37
2019-06-15T08:35:51.988Z,20.17
2019-06-15T08:38:39.290Z,20.48
2019-06-15T08:41:26.956Z,18.12
2019-06-15T08:44:14.532Z,18.42
2019-06-15T08:47:01.802Z,18.35
2019-06-15T08:49:49.826Z,16.35
2019-06-15T08:52:37.399Z,17.62
2019-06-15T08:55:24.837Z,16.85
2019-06-15T08:58:12.039Z,18.15
2019-06-15T09:00:59.478Z,16.82
2019-06-15T09:03:49.448Z,14.50
2019-06-15T09:06:34.070Z,15.45
2019-06-15T09:09:22.024Z,14.50
2019-06-15T09:12:09.342Z,14.70
2019-06-15T09:14:56.960Z,14.90
2019-06-15T09:17:44.908Z,13.72
2019-06-15T09:20:32.520Z,12.60
2019-06-15T09:23:20.116Z,13.50
2019-06-15T09:26:08.172Z,13.20
2019-06-15T09:29:07.707Z,12.78
2019-06-15T09:31:46.203Z,13.60
2019-06-15T09:34:30.312Z,12.60
2019-06-15T09:37:17.618Z,13.10
2019-06-15T09:40:04.938Z,13.53
2019-06-15T09:42:52.288Z,11.35
2019-06-15T09:45:39.708Z,10.63
2019-06-15T09:48:27.237Z,9.00
2019-06-15T09:51:14.734Z,8.48
2019-06-15T09:54:01.820Z,8.60
2019-06-15T09:56:49.394Z,8.60
2019-06-15T09:59:38.489Z,8.43
2019-06-15T10:02:24.532Z,7.80
2019-06-15T10:05:11.762Z,8.03
2019-06-15T10:07:58.974Z,8.30
2019-06-15T10:10:46.401Z,7.35
2019-06-15T10:13:33.818Z,8.58
2019-06-15T10:16:21.093Z,9.68
2019-06-15T10:19:08.767Z,9.48
2019-06-15T10:21:56.510Z,10.05
2019-06-15T10:24:44.053Z,9.65
2019-06-15T10:27:31.897Z,9.60
2019-06-15T10:30:19.618Z,10.05
2019-06-15T10:33:07.558Z,9.70
2019-06-15T10:35:55.106Z,11.38
2019-06-15T10:38:42.448Z,10.65
2019-06-15T10:41:29.880Z,11.25
2019-06-15T10:44:17.786Z,11.03
2019-06-15T10:47:05.185Z,11.03
2019-06-15T10:49:52.627Z,11.15
2019-06-15T10:52:40.079Z,11.50
2019-06-15T10:55:27.837Z,10.13
2019-06-15T10:58:15.259Z,10.68
2019-06-15T11:01:03.382Z,9.95
2019-06-15T11:03:51.491Z,10.72
2019-06-15T11:06:38.813Z,11.35
2019-06-15T11:09:26.655Z,12.18
2019-06-15T11:12:14.033Z,11.53
2019-06-15T11:15:01.401Z,12.18
2019-06-15T11:17:48.660Z,11.95
2019-06-15T11:20:35.843Z,12.95
2019-06-15T11:23:23.282Z,11.97
2019-06-15T11:26:10.619Z,12.33
2019-06-15T11:28:57.953Z,11.80
2019-06-15T11:31:45.649Z,11.88
2019-06-15T11:34:33.215Z,11.20
2019-06-15T11:37:20.720Z,10.63
2019-06-15T11:40:08.815Z,13.62
2019-06-15T11:42:56.235Z,15.45
2019-06-15T11:45:43.909Z,16.55
2019-06-15T11:48:31.339Z,17.17
2019-06-15T11:51:19.132Z,17.62
2019-06-15T11:54:06.527Z,18.00
2019-06-15T11:56:54.516Z,18.15
2019-06-15T11:59:42.360Z,18.17
2019-06-15T12:02:29.838Z,19.07
2019-06-15T12:05:17.604Z,19.90
2019-06-15T12:08:05.539Z,18.42
2019-06-15T12:10:53.131Z,18.02
2019-06-15T12:13:40.680Z,15.40
2019-06-15T12:16:27.904Z,12.93
2019-06-15T12:19:15.330Z,12.25
2019-06-15T12:22:02.953Z,11.63
2019-06-15T12:24:50.521Z,10.08
2019-06-15T12:27:37.914Z,10.70
2019-06-15T12:30:42.959Z,9.78
2019-06-15T12:33:17.417Z,9.98
2019-06-15T12:36:18.353Z,10.65
2019-06-15T12:38:52.258Z,9.63
2019-06-15T12:41:39.549Z,8.68
2019-06-15T12:44:27.010Z,9.20
2019-06-15T12:47:14.667Z,7.40
2019-06-15T12:50:02.084Z,6.55
2019-06-15T12:52:49.581Z,6.90
2019-06-15T12:55:37.003Z,6.28
2019-06-15T12:58:24.357Z,6.12
2019-06-15T13:01:11.840Z,5.45
2019-06-15T13:03:59.285Z,5.17
2019-06-15T13:06:47.158Z,4.90
2019-06-15T13:09:34.879Z,4.20
2019-06-15T13:12:22.325Z,4.03
2019-06-15T13:15:10.026Z,3.45
2019-06-15T13:17:58.088Z,4.20
2019-06-15T13:20:45.316Z,4.62
2019-06-15T13:23:33.191Z,4.22
2019-06-15T13:26:20.613Z,4.58
2019-06-15T13:29:08.779Z,4.33
2019-06-15T13:31:56.051Z,4.30
2019-06-15T13:34:44.042Z,4.22
2019-06-15T13:37:41.708Z,4.37
2019-06-15T13:40:19.734Z,4.78
2019-06-15T13:43:06.830Z,4.10
2019-06-15T13:45:54.204Z,5.05
2019-06-15T13:48:42.214Z,4.60
2019-06-15T13:51:30.198Z,4.30
2019-06-15T13:54:17.601Z,4.65
2019-06-15T13:57:05.644Z,5.05
2019-06-15T13:59:53.039Z,4.90
2019-06-15T14:02:40.369Z,4.30
2019-06-15T14:05:27.714Z,4.10
2019-06-15T14:08:15.372Z,4.67
2019-06-15T14:11:03.290Z,4.65
2019-06-15T14:13:51.220Z,4.87
2019-06-15T14:16:38.484Z,5.75
2019-06-15T14:19:25.829Z,5.65
2019-06-15T14:22:13.129Z,5.08
2019-06-15T14:25:00.632Z,4.92
2019-06-15T14:27:48.208Z,4.85
2019-06-15T14:30:35.840Z,6.55
2019-06-15T14:33:23.737Z,5.17
2019-06-15T14:36:11.280Z,4.75
2019-06-15T14:38:59.044Z,4.62
2019-06-15T14:41:50.060Z,4.37
2019-06-15T14:44:33.872Z,4.05
2019-06-15T14:47:21.080Z,3.10
2019-06-15T14:50:08.312Z,3.20
2019-06-15T14:52:56.308Z,3.30
2019-06-15T14:55:45.840Z,3.17
2019-06-15T14:58:30.983Z,3.67
2019-06-15T15:01:19.022Z,3.10
2019-06-15T15:04:06.616Z,3.75
2019-06-15T15:06:56.423Z,3.90
2019-06-15T15:09:41.662Z,3.45
2019-06-15T15:12:29.544Z,2.92
2019-06-15T15:15:17.287Z,3.10
2019-06-15T15:18:06.838Z,3.85
2019-06-15T15:20:51.977Z,3.62
2019-06-15T15:23:39.538Z,3.05
2019-06-15T15:26:26.952Z,3.05
2019-06-15T15:29:16.313Z,3.25
2019-06-15T15:32:01.892Z,2.80
2019-06-15T15:34:49.294Z,2.50
2019-06-15T15:37:37.293Z,2.30
2019-06-15T15:40:24.128Z,2.30
2019-06-15T15:43:11.319Z,2.20
2019-06-15T15:45:58.756Z,2.83
2019-06-15T15:48:46.980Z,2.75
2019-06-15T15:51:33.799Z,2.35
2019-06-15T15:54:21.054Z,2.20
2019-06-15T15:57:08.663Z,2.22
2019-06-15T15:59:56.462Z,1.60
2019-06-15T16:02:51.564Z,1.60
2019-06-15T16:05:31.084Z,1.37
2019-06-15T16:08:18.474Z,1.30
2019-06-15T16:11:05.931Z,1.00
2019-06-15T16:13:53.190Z,0.90
2019-06-15T16:16:40.366Z,0.90
2019-06-15T16:19:28.002Z,1.00
2019-06-15T16:22:15.861Z,0.88
2019-06-15T16:25:03.270Z,0.68
2019-06-15T16:27:50.957Z,0.80
2019-06-15T16:31:00.267Z,0.78
2019-06-15T16:33:26.624Z,0.75
2019-06-15T16:36:13.780Z,0.62
2019-06-15T16:39:01.710Z,0.72
2019-06-15T16:41:49.158Z,0.80
2019-06-15T16:44:37.028Z,0.80
2019-06-15T16:47:27.177Z,0.80
2019-06-15T16:50:12.307Z,0.90
2019-06-15T16:52:59.688Z,1.00
2019-06-15T16:55:47.086Z,0.80
2019-06-15T16:58:36.331Z,0.70
2019-06-15T17:01:22.622Z,0.80
2019-06-15T17:04:10.027Z,1.22
2019-06-15T17:06:57.217Z,0.90
2019-06-15T17:09:46.504Z,1.00
2019-06-15T17:12:31.976Z,0.80
2019-06-15T17:15:19.968Z,0.90
2019-06-15T17:18:10.170Z,0.90
2019-06-15T17:20:57.399Z,0.90
2019-06-15T17:23:46.719Z,0.90
2019-06-15T17:26:32.785Z,0.90
2019-06-15T17:29:20.256Z,1.05
2019-06-15T17:32:07.713Z,1.12
2019-06-15T17:34:56.390Z,1.20
2019-06-15T17:37:43.102Z,1.20
2019-06-15T17:40:30.765Z,0.90
2019-06-15T17:43:18.495Z,1.12
2019-06-15T17:46:07.279Z,1.32
2019-06-15T17:48:53.309Z,1.02
2019-06-15T17:51:40.957Z,1.12
2019-06-15T17:54:28.982Z,1.30
2019-06-15T17:57:16.965Z,1.30
2019-06-15T18:00:05.848Z,1.40
2019-06-15T18:02:56.032Z,1.50
2019-06-15T18:05:41.156Z,1.30
2019-06-15T18:08:28.585Z,1.20
2019-06-15T18:11:16.688Z,1.25
2019-06-15T18:14:05.971Z,1.45
2019-06-15T18:16:52.055Z,1.40
2019-06-15T18:19:39.520Z,1.10
2019-06-15T18:22:27.195Z,1.10
2019-06-15T18:25:14.561Z,1.30
2019-06-15T18:28:02.526Z,1.62
2019-06-15T18:30:49.916Z,1.30
2019-06-15T18:33:37.361Z,1.60
2019-06-15T18:36:26.626Z,1.57
2019-06-15T18:39:12.995Z,1.90
2019-06-15T18:42:00.403Z,1.50
2019-06-15T18:44:48.079Z,1.47
2019-06-15T18:47:36.515Z,2.05
2019-06-15T18:50:33.826Z,1.98
2019-06-15T18:53:21.649Z,1.60
2019-06-15T18:56:09.053Z,1.15
2019-06-15T18:58:56.537Z,1.60
2019-06-15T19:01:43.947Z,1.60
2019-06-15T19:04:32.013Z,1.75
2019-06-15T19:07:19.887Z,1.87
2019-06-15T19:10:07.813Z,1.40
2019-06-15T19:12:56.710Z,1.62
2019-06-15T19:15:42.983Z,1.60
2019-06-15T19:18:30.262Z,1.75
2019-06-15T19:21:17.732Z,1.80
2019-06-15T19:24:07.205Z,1.82
2019-06-15T19:26:52.295Z,2.27
2019-06-15T19:29:40.221Z,1.80
2019-06-15T19:32:27.682Z,1.90
2019-06-15T19:35:15.280Z,1.72
2019-06-15T19:38:06.030Z,1.72
2019-06-15T19:40:50.915Z,1.95
2019-06-15T19:43:38.397Z,1.75
2019-06-15T19:46:26.106Z,1.90
2019-06-15T19:49:13.076Z,2.05
2019-06-15T19:52:00.641Z,2.12
2019-06-15T19:54:48.079Z,2.42
2019-06-15T19:57:36.208Z,2.25
2019-06-15T20:00:22.956Z,2.20
2019-06-15T20:03:10.825Z,2.67
2019-06-15T20:05:58.255Z,2.27
2019-06-15T20:08:46.885Z,2.53
2019-06-15T20:11:33.167Z,2.17
2019-06-15T20:14:20.702Z,2.20
2019-06-15T20:17:07.955Z,2.37
2019-06-15T20:19:55.941Z,1.97
2019-06-15T20:22:42.793Z,2.20
2019-06-15T20:25:30.265Z,2.17
2019-06-15T20:28:18.214Z,2.40
2019-06-15T20:31:06.523Z,2.20
2019-06-15T20:33:53.165Z,2.13
2019-06-15T20:36:40.719Z,2.20
2019-06-15T20:39:28.133Z,2.40
2019-06-15T20:42:16.493Z,2.57
2019-06-15T20:45:04.268Z,2.40
2019-06-15T20:47:51.774Z,2.60
2019-06-15T20:50:39.299Z,2.90
2019-06-15T20:53:26.819Z,2.77
2019-06-15T20:56:16.923Z,2.83
2019-06-15T20:59:02.122Z,2.40
2019-06-15T21:01:49.574Z,3.00
2019-06-15T21:04:37.431Z,2.50
2019-06-15T21:07:26.947Z,2.80
2019-06-15T21:10:12.370Z,2.70
2019-06-15T21:12:59.712Z,2.93
2019-06-15T21:15:47.855Z,2.80
2019-06-15T21:18:36.902Z,2.80
2019-06-15T21:21:22.107Z,2.90
2019-06-15T21:24:09.898Z,3.33
2019-06-15T21:26:57.117Z,3.80
2019-06-15T21:29:44.660Z,4.20
2019-06-15T21:32:32.388Z,4.07
2019-06-15T21:35:20.163Z,5.10
2019-06-15T21:38:07.696Z,6.23
2019-06-15T21:40:57.048Z,7.60
2019-06-15T21:43:42.849Z,5.50
2019-06-15T21:46:30.466Z,4.50
2019-06-15T21:49:18.012Z,3.73
2019-06-15T21:52:07.123Z,4.30
2019-06-15T21:54:55.852Z,4.27
2019-06-15T21:57:41.194Z,4.13
2019-06-15T22:00:38.848Z,3.57
2019-06-15T22:03:27.013Z,3.40
2019-06-15T22:06:16.745Z,3.87
2019-06-15T22:09:02.362Z,20.90
2019-06-15T22:11:49.891Z,10.40
2019-06-15T22:14:37.568Z,5.23
2019-06-15T22:17:27.021Z,3.57
2019-06-15T22:20:16.786Z,3.10
2019-06-15T22:23:01.659Z,2.93
2019-06-15T22:25:49.426Z,2.97
2019-06-15T22:28:36.579Z,3.10
2019-06-15T22:31:23.975Z,2.90
2019-06-15T22:34:11.966Z,2.87
2019-06-15T22:36:59.798Z,3.20
2019-06-15T22:39:47.697Z,3.33
2019-06-15T22:42:36.302Z,3.43
2019-06-15T22:45:23.250Z,3.60
2019-06-15T22:48:11.115Z,3.30
2019-06-15T22:50:58.718Z,2.90
2019-06-15T22:53:47.108Z,3.10
2019-06-15T22:56:33.540Z,3.00
2019-06-15T22:59:21.030Z,3.23
2019-06-15T23:02:08.433Z,3.30
2019-06-15T23:04:56.670Z,3.10
2019-06-15T23:07:43.708Z,2.80
2019-06-15T23:10:31.232Z,3.23
2019-06-15T23:13:18.864Z,3.43
2019-06-15T23:16:06.725Z,3.17
2019-06-15T23:18:56.768Z,3.03
2019-06-15T23:21:41.642Z,3.10
2019-06-15T23:24:29.585Z,2.77
2019-06-15T23:27:17.667Z,3.03
2019-06-15T23:30:06.728Z,2.90
2019-06-15T23:32:52.446Z,2.93
2019-06-15T23:35:46.677Z,3.10
2019-06-15T23:38:33.806Z,3.27
2019-06-15T23:41:21.919Z,3.90
2019-06-15T23:44:09.464Z,3.90
2019-06-15T23:46:56.788Z,3.30
2019-06-15T23:49:46.120Z,2.90
2019-06-15T23:52:32.450Z,3.10
2019-06-15T23:55:20.351Z,3.43
2019-06-15T23:58:07.618Z,3.00
